Time;durP1;ratioP1;P1;durP2;ratioP2;P2;SDS_P1;SDS_P2;PMS_P1;PMS_P2;Temp;Humidity;BMP_temperature;BMP_pressure;BME280_temperature;BME280_humidity;BME280_pressure;Samples;Min_cycle;Max_cycle;Signal;HPM_P1;HPM_P2
2022/05/29 00:00:04;;;;;;;;;1.75;1.75;;;;;-147.17;100.00;59696.56;4983868;28;9768;-69
2022/05/29 00:02:30;;;;;;;;;1.67;1.33;;;;;-147.17;100.00;59696.56;4983927;28;8792;-68
2022/05/29 00:04:55;;;;;;;;;3.00;2.00;;;;;-147.17;100.00;59696.56;4966303;28;8837;-68
2022/05/29 00:07:20;;;;;;;;;2.00;2.00;;;;;-147.17;100.00;59696.56;4983085;28;8940;-68
2022/05/29 00:09:48;;;;;;;;;2.00;1.00;;;;;-147.17;100.00;59696.56;4983891;28;8834;-68
2022/05/29 00:12:15;;;;;;;;;2.00;2.00;;;;;-147.17;100.00;59696.56;4984116;28;8814;-68
2022/05/29 00:14:42;;;;;;;;;3.00;3.00;;;;;-147.17;100.00;59696.56;4982640;28;9663;-68
2022/05/29 00:17:08;;;;;;;;;3.00;2.00;;;;;-147.17;100.00;59696.56;4984908;28;9594;-67
2022/05/29 00:19:34;;;;;;;;;2.00;2.00;;;;;-147.17;100.00;59696.56;4980616;28;9616;-68
2022/05/29 00:22:01;;;;;;;;;3.00;2.00;;;;;-147.17;100.00;59696.56;4982747;28;9699;-67
2022/05/29 00:24:27;;;;;;;;;3.00;2.25;;;;;-147.17;100.00;59696.56;4981105;28;9861;-67
2022/05/29 00:26:53;;;;;;;;;3.25;3.00;;;;;-147.17;100.00;59696.56;4982580;28;10250;-68
2022/05/29 00:29:19;;;;;;;;;3.00;3.00;;;;;-147.17;100.00;59696.56;4980838;28;8794;-68
2022/05/29 00:31:44;;;;;;;;;1.25;1.25;;;;;-147.17;100.00;59696.56;4982825;28;9630;-67
2022/05/29 00:34:09;;;;;;;;;2.00;1.50;;;;;-147.17;100.00;59696.56;4983670;28;9565;-68
2022/05/29 00:36:40;;;;;;;;;2.00;2.00;;;;;-147.17;100.00;59696.56;4981767;28;8839;-68
2022/05/29 00:39:09;;;;;;;;;2.00;2.00;;;;;-147.17;100.00;59696.56;4983692;28;8903;-67
2022/05/29 00:41:37;;;;;;;;;2.25;2.25;;;;;-147.17;100.00;59696.56;4982683;28;9546;-67
2022/05/29 00:44:25;;;;;;;;;3.00;3.00;;;;;-147.17;100.00;59696.56;4980071;28;9849;-67
2022/05/29 00:46:55;;;;;;;;;2.00;2.00;;;;;-147.17;100.00;59696.56;4983510;28;9699;-67
2022/05/29 00:49:24;;;;;;;;;2.25;2.25;;;;;-147.17;100.00;59696.56;4982782;28;9858;-67
2022/05/29 00:51:54;;;;;;;;;2.50;2.50;;;;;-147.17;100.00;59696.56;4982158;28;9656;-68
2022/05/29 00:54:20;;;;;;;;;5.25;5.25;;;;;-147.17;100.00;59696.56;4984179;28;9695;-68
2022/05/29 00:56:47;;;;;;;;;1.75;1.75;;;;;-147.17;100.00;59696.56;4981619;28;9816;-67
2022/05/29 00:59:24;;;;;;;;;3.00;3.00;;;;;-147.17;100.00;59696.56;4983308;28;10000;-67
2022/05/29 01:01:51;;;;;;;;;1.00;1.00;;;;;-147.17;100.00;59696.56;4983947;28;9579;-67
2022/05/29 01:04:17;;;;;;;;;4.25;4.00;;;;;-147.17;100.00;59696.56;4984795;28;9513;-68
2022/05/29 01:06:44;;;;;;;;;3.00;2.00;;;;;-147.17;100.00;59696.56;4984855;28;9913;-68
2022/05/29 01:09:10;;;;;;;;;1.75;1.75;;;;;-147.17;100.00;59696.56;4985379;28;9681;-68
2022/05/29 01:11:48;;;;;;;;;2.00;2.00;;;;;-147.17;100.00;59696.56;4985511;28;9669;-68
2022/05/29 01:14:22;;;;;;;;;1.50;1.00;;;;;-147.17;100.00;59696.56;4984894;28;9689;-67
2022/05/29 01:17:00;;;;;;;;;1.25;1.00;;;;;-147.17;100.00;59696.56;4986590;28;9669;-68
2022/05/29 01:19:53;;;;;;;;;2.00;2.00;;;;;-147.17;100.00;59696.56;4989074;28;9829;-68
2022/05/29 01:22:33;;;;;;;;;3.00;3.00;;;;;-147.17;100.00;59696.56;4990924;28;9722;-69
2022/05/29 01:25:23;;;;;;;;;2.00;2.00;;;;;-147.17;100.00;59696.56;4989355;28;9881;-68
2022/05/29 01:28:07;;;;;;;;;2.00;2.00;;;;;-147.17;100.00;59696.56;4984742;28;9897;-68
2022/05/29 01:30:42;;;;;;;;;3.75;3.75;;;;;-147.17;100.00;59696.56;4983160;28;10065;-68
2022/05/29 01:33:25;;;;;;;;;1.00;1.00;;;;;-147.17;100.00;59696.56;4984181;28;10571;-68
2022/05/29 01:36:15;;;;;;;;;1.75;1.75;;;;;-147.17;100.00;59696.56;4986556;28;9653;-69
2022/05/29 01:38:46;;;;;;;;;2.00;2.00;;;;;-147.17;100.00;59696.56;4984552;28;9675;-67
2022/05/29 01:41:35;;;;;;;;;2.00;2.00;;;;;-147.17;100.00;59696.56;4985384;28;9647;-67
2022/05/29 01:44:06;;;;;;;;;3.00;2.00;;;;;-147.17;100.00;59696.56;4972643;28;9750;-66
2022/05/29 01:46:34;;;;;;;;;2.75;1.25;;;;;-147.17;100.00;59696.56;4985075;28;9856;-67
2022/05/29 01:49:26;;;;;;;;;3.00;2.00;;;;;-147.17;100.00;59696.56;4969483;28;10797;-64
2022/05/29 01:52:02;;;;;;;;;3.75;2.00;;;;;-147.17;100.00;59696.56;4967404;28;9986;-66
2022/05/29 01:54:39;;;;;;;;;2.00;2.00;;;;;-147.17;100.00;59696.56;4984397;28;9734;-67
2022/05/29 01:57:16;;;;;;;;;3.00;3.00;;;;;-147.17;100.00;59696.56;4984784;28;9837;-67
2022/05/29 02:00:16;;;;;;;;;2.75;2.50;;;;;-147.17;100.00;59696.56;4984545;28;9845;-67
2022/05/29 02:02:49;;;;;;;;;3.00;3.00;;;;;-147.17;100.00;59696.56;4941937;28;10094;-67
2022/05/29 02:05:21;;;;;;;;;1.00;1.00;;;;;-147.17;100.00;59696.56;4985121;28;10019;-66
2022/05/29 02:07:50;;;;;;;;;2.75;2.75;;;;;-147.17;100.00;59696.56;4984119;28;9848;-67
2022/05/29 02:10:32;;;;;;;;;1.75;1.75;;;;;-147.17;100.00;59696.56;4986973;28;9838;-67
2022/05/29 02:13:02;;;;;;;;;3.75;2.75;;;;;-147.17;100.00;59696.56;4983876;28;9914;-66
2022/05/29 02:15:37;;;;;;;;;4.00;4.00;;;;;-147.17;100.00;59696.56;4987293;28;9749;-68
2022/05/29 02:18:08;;;;;;;;;2.50;2.25;;;;;-147.17;100.00;59696.56;4981266;28;9820;-68
2022/05/29 02:20:41;;;;;;;;;3.50;2.00;;;;;-147.17;100.00;59696.56;4984039;28;10714;-67
2022/05/29 02:23:11;;;;;;;;;2.50;2.50;;;;;-147.17;100.00;59696.56;4985347;28;10011;-67
2022/05/29 02:25:39;;;;;;;;;2.00;2.00;;;;;-147.17;100.00;59696.56;4982504;28;9851;-68
2022/05/29 02:28:10;;;;;;;;;2.50;2.50;;;;;-147.17;100.00;59696.56;4984908;28;9852;-69
2022/05/29 02:31:08;;;;;;;;;3.00;3.00;;;;;-147.17;100.00;59696.56;4986455;28;9841;-69
2022/05/29 02:33:47;;;;;;;;;2.00;2.00;;;;;-147.17;100.00;59696.56;4899858;28;9921;-68
2022/05/29 02:36:35;;;;;;;;;3.25;3.25;;;;;-147.17;100.00;59696.56;4983954;28;10086;-68
2022/05/29 02:39:22;;;;;;;;;2.00;2.00;;;;;-147.17;100.00;59696.56;4986425;28;10135;-68
2022/05/29 02:42:10;;;;;;;;;2.00;2.00;;;;;-147.17;100.00;59696.56;4984369;28;9768;-68
2022/05/29 02:44:46;;;;;;;;;2.00;2.00;;;;;-147.17;100.00;59696.56;4986295;28;9896;-67
2022/05/29 02:47:14;;;;;;;;;2.00;2.00;;;;;-147.17;100.00;59696.56;4984735;28;9916;-67
2022/05/29 02:50:26;;;;;;;;;3.75;2.00;;;;;-147.17;100.00;59696.56;4975121;28;9838;-67
2022/05/29 02:52:53;;;;;;;;;3.00;2.75;;;;;-147.17;100.00;59696.56;4977041;28;9713;-67
2022/05/29 02:55:20;;;;;;;;;2.00;2.00;;;;;-147.17;100.00;59696.56;4988583;28;10081;-68
2022/05/29 02:57:49;;;;;;;;;2.00;2.00;;;;;-147.17;100.00;59696.56;4988064;28;9795;-67
2022/05/29 03:00:15;;;;;;;;;2.75;2.25;;;;;-147.17;100.00;59696.56;4992962;28;9775;-68
2022/05/29 03:03:25;;;;;;;;;2.00;2.00;;;;;-147.17;100.00;59696.56;4991697;28;9830;-67
2022/05/29 03:06:14;;;;;;;;;3.00;3.00;;;;;-147.17;100.00;59696.56;4990743;28;9910;-67
2022/05/29 03:09:00;;;;;;;;;5.25;3.00;;;;;-147.17;100.00;59696.56;4992901;28;9830;-67
2022/05/29 03:11:40;;;;;;;;;3.50;3.25;;;;;-147.17;100.00;59696.56;4990061;28;10156;-67
2022/05/29 03:14:16;;;;;;;;;2.25;2.25;;;;;-147.17;100.00;59696.56;4990680;28;9903;-67
2022/05/29 03:16:58;;;;;;;;;3.00;2.00;;;;;-147.17;100.00;59696.56;4990980;28;10534;-68
2022/05/29 03:19:29;;;;;;;;;3.00;3.00;;;;;-147.17;100.00;59696.56;4993608;28;10024;-67
2022/05/29 03:22:22;;;;;;;;;4.00;3.00;;;;;-147.17;100.00;59696.56;4987861;28;9917;-69
2022/05/29 03:25:02;;;;;;;;;2.00;2.00;;;;;-147.17;100.00;59696.56;4991834;28;10076;-69
2022/05/29 03:27:37;;;;;;;;;4.00;4.00;;;;;-147.17;100.00;59696.56;4984353;28;9920;-68
2022/05/29 03:30:39;;;;;;;;;2.50;2.50;;;;;-147.17;100.00;59696.56;4988094;28;10087;-69
2022/05/29 03:33:09;;;;;;;;;2.00;2.00;;;;;-147.17;100.00;59696.56;4945056;28;9998;-68
2022/05/29 03:35:45;;;;;;;;;3.75;3.75;;;;;-147.17;100.00;59696.56;4988347;28;9880;-68
2022/05/29 03:38:10;;;;;;;;;5.00;4.00;;;;;-147.17;100.00;59696.56;4988732;28;10899;-68
2022/05/29 03:40:36;;;;;;;;;2.00;2.00;;;;;-147.17;100.00;59696.56;4990995;28;10115;-68
2022/05/29 03:43:01;;;;;;;;;2.75;2.75;;;;;-147.17;100.00;59696.56;4987629;28;8859;-68
2022/05/29 03:45:27;;;;;;;;;2.00;2.00;;;;;-147.17;100.00;59696.56;4995923;28;8811;-69
2022/05/29 03:47:53;;;;;;;;;3.50;3.00;;;;;-147.17;100.00;59696.56;4987824;28;8814;-68
2022/05/29 03:50:21;;;;;;;;;3.00;2.00;;;;;-147.17;100.00;59696.56;4989882;28;10007;-68
2022/05/29 03:52:47;;;;;;;;;2.00;2.00;;;;;-147.17;100.00;59696.56;4983302;28;8794;-68
2022/05/29 03:55:15;;;;;;;;;3.00;3.00;;;;;-147.17;100.00;59696.56;4990443;28;10642;-68
2022/05/29 03:57:41;;;;;;;;;2.75;2.25;;;;;-147.17;100.00;59696.56;4989368;28;9984;-68
2022/05/29 04:00:10;;;;;;;;;2.00;1.75;;;;;-147.17;100.00;59696.56;4986505;28;9822;-68
2022/05/29 04:02:35;;;;;;;;;2.75;2.00;;;;;-147.17;100.00;59696.56;4986549;28;8832;-69
2022/05/29 04:05:01;;;;;;;;;3.50;3.00;;;;;-147.17;100.00;59696.56;4992988;28;10012;-68
2022/05/29 04:12:56;;;;;;;;;3.00;3.00;;;;;-147.17;100.00;59696.56;4988311;28;9987;-68
2022/05/29 04:15:22;;;;;;;;;2.75;2.50;;;;;-147.17;100.00;59696.56;4989905;28;9908;-68
2022/05/29 04:17:47;;;;;;;;;3.00;2.00;;;;;-147.17;100.00;59696.56;4982525;28;10228;-68
2022/05/29 04:20:13;;;;;;;;;3.75;3.25;;;;;-147.17;100.00;59696.56;4991369;28;8885;-69
2022/05/29 04:22:38;;;;;;;;;3.00;3.00;;;;;-147.17;100.00;59696.56;4987552;28;9584;-69
2022/05/29 04:25:04;;;;;;;;;3.00;2.00;;;;;-147.17;100.00;59696.56;4990723;28;8892;-68
2022/05/29 04:27:29;;;;;;;;;3.00;2.00;;;;;-147.17;100.00;59696.56;4986268;28;9784;-70
2022/05/29 04:29:54;;;;;;;;;3.00;3.00;;;;;-147.17;100.00;59696.56;4990726;28;8798;-69
2022/05/29 04:35:04;;;;;;;;;3.00;2.00;;;;;-147.17;100.00;59696.56;4995925;28;8795;-68
2022/05/29 04:37:29;;;;;;;;;3.50;3.00;;;;;-147.17;100.00;59696.56;4986153;28;10999;-68
2022/05/29 04:39:55;;;;;;;;;2.00;2.00;;;;;-147.17;100.00;59696.56;4998622;28;8952;-68
2022/05/29 04:42:20;;;;;;;;;2.00;1.75;;;;;-147.17;100.00;59696.56;4985058;28;8865;-69
2022/05/29 04:44:46;;;;;;;;;3.25;1.00;;;;;-147.17;100.00;59696.56;4993914;28;8825;-68
2022/05/29 04:47:11;;;;;;;;;3.00;3.00;;;;;-147.17;100.00;59696.56;4986639;28;8916;-68
2022/05/29 04:49:38;;;;;;;;;2.75;2.25;;;;;-147.17;100.00;59696.56;4993901;28;8830;-69
2022/05/29 04:52:05;;;;;;;;;2.00;2.00;;;;;-147.17;100.00;59696.56;4994865;28;8770;-69
2022/05/29 04:54:33;;;;;;;;;4.25;4.25;;;;;-147.17;100.00;59696.56;4976920;28;10025;-70
2022/05/29 04:56:59;;;;;;;;;3.75;3.00;;;;;-147.17;100.00;59696.56;4993818;28;10880;-69
2022/05/29 04:59:24;;;;;;;;;3.00;3.00;;;;;-147.17;100.00;59696.56;4988650;28;10044;-69
2022/05/29 05:01:50;;;;;;;;;3.25;3.00;;;;;-147.17;100.00;59696.56;4989748;28;8826;-69
2022/05/29 05:04:15;;;;;;;;;2.00;2.00;;;;;-147.17;100.00;59696.56;5004583;28;8813;-68
2022/05/29 05:06:40;;;;;;;;;3.25;3.25;;;;;-147.17;100.00;59696.56;4976833;28;8833;-69
2022/05/29 05:09:06;;;;;;;;;4.50;4.00;;;;;-147.17;100.00;59696.56;4994260;28;8829;-68
2022/05/29 05:11:32;;;;;;;;;2.75;2.00;;;;;-147.17;100.00;59696.56;4993608;28;8842;-68
2022/05/29 05:13:57;;;;;;;;;5.00;4.50;;;;;-147.17;100.00;59696.56;4990010;28;8809;-69
2022/05/29 05:16:22;;;;;;;;;3.00;2.67;;;;;-147.17;100.00;59696.56;4991864;28;8825;-68
2022/05/29 05:18:48;;;;;;;;;4.33;3.33;;;;;-147.17;100.00;59696.56;4996883;28;8875;-69
2022/05/29 05:21:13;;;;;;;;;3.00;3.00;;;;;-147.17;100.00;59696.56;4990199;28;8830;-68
2022/05/29 05:23:40;;;;;;;;;3.33;3.00;;;;;-147.17;100.00;59696.56;4983360;28;8904;-68
2022/05/29 05:26:11;;;;;;;;;3.00;3.00;;;;;-147.17;100.00;59696.56;4999936;28;8926;-68
2022/05/29 05:28:36;;;;;;;;;2.00;2.00;;;;;-147.17;100.00;59696.56;4988679;28;9296;-68
2022/05/29 05:31:02;;;;;;;;;2.67;2.67;;;;;-147.17;100.00;59696.56;4993905;28;9403;-68
2022/05/29 05:33:27;;;;;;;;;4.00;3.33;;;;;-147.17;100.00;59696.56;4990175;28;8809;-68
2022/05/29 05:35:52;;;;;;;;;3.00;3.00;;;;;-147.17;100.00;59696.56;4990010;28;9612;-67
2022/05/29 05:38:18;;;;;;;;;4.00;4.00;;;;;-147.17;100.00;59696.56;4979172;28;8840;-68
2022/05/29 05:40:43;;;;;;;;;2.00;2.00;;;;;-147.17;100.00;59696.56;4969955;28;8857;-69
2022/05/29 05:43:09;;;;;;;;;5.33;3.00;;;;;-147.17;100.00;59696.56;4989249;28;8853;-69
2022/05/29 05:45:34;;;;;;;;;2.00;2.00;;;;;-147.17;100.00;59696.56;4986590;28;8833;-69
2022/05/29 05:48:00;;;;;;;;;1.67;1.00;;;;;-147.17;100.00;59696.56;4989324;28;8831;-68
2022/05/29 05:50:25;;;;;;;;;2.00;2.00;;;;;-147.17;100.00;59696.56;4991057;28;8817;-67
2022/05/29 05:52:50;;;;;;;;;1.67;1.67;;;;;-147.17;100.00;59696.56;4988967;28;8916;-67
2022/05/29 05:55:16;;;;;;;;;2.33;2.00;;;;;-147.17;100.00;59696.56;4990635;28;8821;-68
2022/05/29 05:57:41;;;;;;;;;2.33;2.00;;;;;-147.17;100.00;59696.56;4979617;28;8837;-67
2022/05/29 06:00:14;;;;;;;;;2.00;2.00;;;;;-147.17;100.00;59696.56;4999217;28;8888;-67
2022/05/29 06:02:41;;;;;;;;;3.75;3.00;;;;;-147.17;100.00;59696.56;4985647;28;8807;-68
2022/05/29 06:05:08;;;;;;;;;1.50;1.00;;;;;-147.17;100.00;59696.56;4991903;28;8887;-67
2022/05/29 06:07:33;;;;;;;;;3.00;2.25;;;;;-147.17;100.00;59696.56;4991026;28;8813;-68
2022/05/29 06:09:58;;;;;;;;;1.67;1.67;;;;;-147.17;100.00;59696.56;5001050;28;9647;-67
2022/05/29 06:12:24;;;;;;;;;2.67;2.33;;;;;-147.17;100.00;59696.56;4987563;28;8912;-69
2022/05/29 06:14:49;;;;;;;;;2.33;2.00;;;;;-147.17;100.00;59696.56;4991004;28;9662;-68
2022/05/29 06:17:14;;;;;;;;;1.67;1.67;;;;;-147.17;100.00;59696.56;4985886;28;8809;-69
2022/05/29 06:19:40;;;;;;;;;2.00;2.00;;;;;-147.17;100.00;59696.56;4991623;28;8935;-69
2022/05/29 06:22:07;;;;;;;;;2.00;2.00;;;;;-147.17;100.00;59696.56;4989226;28;8810;-69
2022/05/29 06:24:33;;;;;;;;;1.00;1.00;;;;;-147.17;100.00;59696.56;4990859;28;8837;-68
2022/05/29 06:26:59;;;;;;;;;1.00;1.00;;;;;-147.17;100.00;59696.56;4990453;28;8840;-68
2022/05/29 06:29:25;;;;;;;;;2.00;2.00;;;;;-147.17;100.00;59696.56;4984387;28;8827;-68
2022/05/29 06:31:53;;;;;;;;;3.00;2.50;;;;;-147.17;100.00;59696.56;4986247;28;8834;-68
2022/05/29 06:34:19;;;;;;;;;1.75;1.75;;;;;-147.17;100.00;59696.56;4988350;28;8798;-68
2022/05/29 06:36:45;;;;;;;;;2.00;2.00;;;;;-147.17;100.00;59696.56;4990347;28;8953;-68
2022/05/29 06:39:10;;;;;;;;;1.67;1.67;;;;;-147.17;100.00;59696.56;4991050;28;8844;-68
2022/05/29 06:41:39;;;;;;;;;2.00;2.00;;;;;-147.17;100.00;59696.56;4994349;28;8810;-68
2022/05/29 06:44:05;;;;;;;;;1.00;1.00;;;;;-147.17;100.00;59696.56;4993677;28;8817;-68
2022/05/29 06:46:30;;;;;;;;;2.00;1.00;;;;;-147.17;100.00;59696.56;4976991;28;8821;-68
2022/05/29 06:48:55;;;;;;;;;2.33;1.33;;;;;-147.17;100.00;59696.56;4997684;28;11481;-69
2022/05/29 06:51:22;;;;;;;;;2.00;2.00;;;;;-147.17;100.00;59696.56;4985284;28;8861;-68
2022/05/29 06:53:56;;;;;;;;;3.00;2.00;;;;;-147.17;100.00;59696.56;4990325;28;8850;-67
2022/05/29 06:56:22;;;;;;;;;2.00;2.00;;;;;-147.17;100.00;59696.56;4993192;28;8826;-68
2022/05/29 06:58:48;;;;;;;;;1.00;1.00;;;;;-147.17;100.00;59696.56;4973003;28;8826;-68
2022/05/29 07:07:00;;;;;;;;;1.00;1.00;;;;;-147.17;100.00;59696.56;4988196;28;8806;-66
2022/05/29 07:09:31;;;;;;;;;1.00;1.00;;;;;-147.17;100.00;59696.56;4990419;28;8836;-66
2022/05/29 07:12:06;;;;;;;;;1.25;1.25;;;;;-147.17;100.00;59696.56;4988143;28;8781;-67
2022/05/29 07:14:35;;;;;;;;;1.25;1.25;;;;;-147.17;100.00;59696.56;4987751;28;8806;-68
2022/05/29 07:17:01;;;;;;;;;1.00;0.75;;;;;-147.17;100.00;59696.56;4989796;28;8814;-68
2022/05/29 07:19:28;;;;;;;;;1.00;1.00;;;;;-147.17;100.00;59696.56;4984671;28;8849;-67
2022/05/29 07:21:57;;;;;;;;;2.50;2.50;;;;;-147.17;100.00;59696.56;4986299;28;8790;-67
2022/05/29 07:24:23;;;;;;;;;1.25;1.00;;;;;-147.17;100.00;59696.56;4979064;28;8841;-67
2022/05/29 07:26:49;;;;;;;;;1.00;1.00;;;;;-147.17;100.00;59696.56;4987545;28;8794;-67
2022/05/29 07:29:17;;;;;;;;;1.67;1.67;;;;;-147.17;100.00;59696.56;4996221;28;8957;-68
2022/05/29 07:31:43;;;;;;;;;0.75;0.75;;;;;-147.17;100.00;59696.56;4989498;28;8814;-68
2022/05/29 07:34:08;;;;;;;;;1.00;1.00;;;;;-147.17;100.00;59696.56;4989385;28;8793;-68
2022/05/29 07:36:33;;;;;;;;;1.00;1.00;;;;;-147.17;100.00;59696.56;4988466;28;8825;-68
2022/05/29 07:39:00;;;;;;;;;0.67;0.67;;;;;-147.17;100.00;59696.56;4990407;28;8833;-67
2022/05/29 07:44:10;;;;;;;;;0.00;0.00;;;;;-147.17;100.00;59696.56;4991801;28;8799;-67
2022/05/29 07:46:35;;;;;;;;;0.00;0.00;;;;;-147.17;100.00;59696.56;4988120;28;8853;-67
2022/05/29 07:49:01;;;;;;;;;0.00;0.00;;;;;-147.17;100.00;59696.56;4989912;28;8828;-67
2022/05/29 07:51:26;;;;;;;;;0.00;0.00;;;;;-147.17;100.00;59696.56;4986777;28;8804;-67
2022/05/29 07:53:51;;;;;;;;;2.00;2.00;;;;;-147.17;100.00;59696.56;4989943;28;8864;-67
2022/05/29 07:56:19;;;;;;;;;1.00;1.00;;;;;-147.17;100.00;59696.56;4989804;28;8826;-67
2022/05/29 07:58:44;;;;;;;;;0.75;0.75;;;;;-147.17;100.00;59696.56;4990118;28;8817;-67
2022/05/29 08:01:11;;;;;;;;;1.00;1.00;;;;;-147.17;100.00;59696.56;4990632;28;8806;-67
2022/05/29 08:03:36;;;;;;;;;1.25;1.00;;;;;-147.17;100.00;59696.56;4986171;28;8829;-68
2022/05/29 08:06:02;;;;;;;;;0.00;0.00;;;;;-147.17;100.00;59696.56;4985814;28;8849;-68
2022/05/29 08:08:29;;;;;;;;;1.00;1.00;;;;;-147.17;100.00;59696.56;4982217;28;8825;-67
2022/05/29 08:10:54;;;;;;;;;0.75;0.75;;;;;-147.17;100.00;59696.56;4975369;28;9536;-68
2022/05/29 08:13:20;;;;;;;;;1.00;1.00;;;;;-147.17;100.00;59696.56;4990487;28;8818;-68
2022/05/29 08:15:45;;;;;;;;;1.00;1.00;;;;;-147.17;100.00;59696.56;4984810;28;9597;-68
2022/05/29 08:18:11;;;;;;;;;0.33;0.33;;;;;-147.17;100.00;59696.56;4983282;28;8829;-70
2022/05/29 08:20:37;;;;;;;;;1.00;0.00;;;;;-147.17;100.00;59696.56;4987579;28;8952;-67
2022/05/29 08:23:04;;;;;;;;;1.00;1.00;;;;;-147.17;100.00;59696.56;4987205;28;8850;-67
2022/05/29 08:30:58;;;;;;;;;0.00;0.00;;;;;-147.17;100.00;59696.56;4992770;28;8911;-69
2022/05/29 08:33:29;;;;;;;;;1.00;1.00;;;;;-147.17;100.00;59696.56;4992435;28;9077;-68
2022/05/29 08:36:11;;;;;;;;;0.75;0.75;;;;;-147.17;100.00;59696.56;4991179;28;8790;-68
2022/05/29 08:38:43;;;;;;;;;0.50;0.25;;;;;-147.17;100.00;59696.56;4990158;28;8832;-68
2022/05/29 08:41:31;;;;;;;;;0.00;0.00;;;;;-147.17;100.00;59696.56;4995676;28;9620;-68
2022/05/29 08:44:04;;;;;;;;;0.75;0.25;;;;;-147.17;100.00;59696.56;4992700;28;8801;-67
2022/05/29 08:46:41;;;;;;;;;0.00;0.00;;;;;-147.17;100.00;59696.56;4993493;28;8848;-67
2022/05/29 08:49:14;;;;;;;;;1.00;0.00;;;;;-147.17;100.00;59696.56;4992603;28;8923;-68
2022/05/29 08:52:04;;;;;;;;;0.25;0.00;;;;;-147.17;100.00;59696.56;4986792;28;8760;-67
2022/05/29 08:54:38;;;;;;;;;0.00;0.00;;;;;-147.17;100.00;59696.56;4993581;28;8816;-67
2022/05/29 08:57:33;;;;;;;;;0.00;0.00;;;;;-147.17;100.00;59696.56;4992673;28;8794;-68
2022/05/29 08:59:58;;;;;;;;;1.00;0.00;;;;;-147.17;100.00;59696.56;4992884;28;9038;-68
2022/05/29 09:02:35;;;;;;;;;1.00;0.00;;;;;-147.17;100.00;59696.56;4992444;28;8867;-67
2022/05/29 09:05:16;;;;;;;;;1.00;1.00;;;;;-147.17;100.00;59696.56;4992709;28;8932;-67
2022/05/29 09:07:43;;;;;;;;;2.00;2.00;;;;;-147.17;100.00;59696.56;4993141;28;8770;-67
2022/05/29 09:10:40;;;;;;;;;0.00;0.00;;;;;-147.17;100.00;59696.56;4985033;28;8826;-67
2022/05/29 09:13:14;;;;;;;;;0.00;0.00;;;;;-147.17;100.00;59696.56;4989362;28;8789;-67
2022/05/29 09:15:39;;;;;;;;;0.00;0.00;;;;;-147.17;100.00;59696.56;4993114;28;8799;-67
2022/05/29 09:18:14;;;;;;;;;0.00;0.00;;;;;-147.17;100.00;59696.56;4992252;28;8817;-68
2022/05/29 09:20:55;;;;;;;;;1.00;0.00;;;;;-147.17;100.00;59696.56;4988097;28;8821;-68
2022/05/29 09:23:27;;;;;;;;;2.00;2.00;;;;;-147.17;100.00;59696.56;4989803;28;8914;-68
2022/05/29 09:25:55;;;;;;;;;0.00;0.00;;;;;-147.17;100.00;59696.56;4987683;28;9576;-68
2022/05/29 09:28:26;;;;;;;;;1.00;1.00;;;;;-147.17;100.00;59696.56;4987919;28;8807;-68
2022/05/29 09:30:53;;;;;;;;;1.50;1.50;;;;;-147.17;100.00;59696.56;4991838;28;8830;-66
2022/05/29 09:33:25;;;;;;;;;3.00;3.00;;;;;-147.17;100.00;59696.56;4983037;28;8785;-66
2022/05/29 09:36:02;;;;;;;;;2.25;1.75;;;;;-147.17;100.00;59696.56;4991320;28;8809;-67
2022/05/29 09:38:42;;;;;;;;;2.25;1.25;;;;;-147.17;100.00;59696.56;4967222;28;8810;-68
2022/05/29 09:41:16;;;;;;;;;0.00;0.00;;;;;-147.17;100.00;59696.56;4993314;28;8836;-66
2022/05/29 09:44:04;;;;;;;;;0.75;0.75;;;;;-147.17;100.00;59696.56;4974161;28;8829;-67
2022/05/29 09:46:32;;;;;;;;;1.00;1.00;;;;;-147.17;100.00;59696.56;4993100;28;8860;-66
2022/05/29 09:52:27;;;;;;;;;1.00;1.00;;;;;-147.17;100.00;59696.56;4983287;28;8788;-67
2022/05/29 09:55:05;;;;;;;;;1.00;1.00;;;;;-147.17;100.00;59696.56;4983675;28;8802;-67
2022/05/29 09:57:49;;;;;;;;;1.00;1.00;;;;;-147.17;100.00;59696.56;4991947;28;8844;-67
2022/05/29 10:00:35;;;;;;;;;1.00;1.00;;;;;-147.17;100.00;59696.56;4991162;28;8845;-67
2022/05/29 10:03:02;;;;;;;;;1.00;1.00;;;;;-147.17;100.00;59696.56;4992300;28;8795;-67
2022/05/29 10:05:44;;;;;;;;;2.75;2.00;;;;;-147.17;100.00;59696.56;4989126;28;8816;-68
2022/05/29 10:08:28;;;;;;;;;1.00;1.00;;;;;-147.17;100.00;59696.56;4992721;28;8797;-68
2022/05/29 10:10:53;;;;;;;;;2.00;2.00;;;;;-147.17;100.00;59696.56;4992265;28;8826;-69
2022/05/29 10:13:37;;;;;;;;;1.67;1.67;;;;;-147.17;100.00;59696.56;4992906;28;8920;-68
2022/05/29 10:16:03;;;;;;;;;2.00;2.00;;;;;-147.17;100.00;59696.56;4991406;28;8801;-67
2022/05/29 10:18:33;;;;;;;;;1.33;1.33;;;;;-147.17;100.00;59696.56;4991589;28;8895;-68
2022/05/29 10:21:10;;;;;;;;;1.75;1.75;;;;;-147.17;100.00;59696.56;4981524;28;8848;-67
2022/05/29 10:23:37;;;;;;;;;1.33;1.33;;;;;-147.17;100.00;59696.56;4980347;28;8821;-67
2022/05/29 10:26:06;;;;;;;;;5.00;3.67;;;;;-147.17;100.00;59696.56;4986892;28;8898;-68
2022/05/29 10:28:37;;;;;;;;;3.00;3.00;;;;;-147.17;100.00;59696.56;4988289;28;9124;-67
2022/05/29 10:31:10;;;;;;;;;1.00;1.00;;;;;-147.17;100.00;59696.56;4981688;28;9061;-68
2022/05/29 10:33:36;;;;;;;;;3.00;2.33;;;;;-147.17;100.00;59696.56;4970596;28;8847;-68
2022/05/29 10:36:16;;;;;;;;;2.00;2.00;;;;;-147.17;100.00;59696.56;4983300;28;9038;-66
2022/05/29 10:38:43;;;;;;;;;2.33;1.67;;;;;-147.17;100.00;59696.56;4991486;28;8813;-67
2022/05/29 10:41:10;;;;;;;;;0.75;0.25;;;;;-147.17;100.00;59696.56;4992356;28;8954;-66
2022/05/29 10:43:43;;;;;;;;;2.00;2.00;;;;;-147.17;100.00;59696.56;4991789;28;8845;-66
2022/05/29 10:46:35;;;;;;;;;2.00;2.00;;;;;-147.17;100.00;59696.56;4993088;28;8891;-66
2022/05/29 10:49:34;;;;;;;;;1.67;1.67;;;;;-147.17;100.00;59696.56;4988286;28;8890;-66
2022/05/29 10:52:08;;;;;;;;;1.00;1.00;;;;;-147.17;100.00;59696.56;4990128;28;8899;-68
2022/05/29 10:54:51;;;;;;;;;1.00;1.00;;;;;-147.17;100.00;59696.56;4978791;28;8852;-68
2022/05/29 10:57:48;;;;;;;;;1.33;1.33;;;;;-147.17;100.00;59696.56;4990546;28;8932;-66
2022/05/29 11:00:29;;;;;;;;;2.00;2.00;;;;;-147.17;100.00;59696.56;4969852;28;8991;-67
2022/05/29 11:03:18;;;;;;;;;1.67;1.00;;;;;-147.17;100.00;59696.56;4992436;28;9027;-67
2022/05/29 11:06:10;;;;;;;;;2.67;2.67;;;;;-147.17;100.00;59696.56;4972188;28;8912;-67
2022/05/29 11:08:47;;;;;;;;;1.67;1.67;;;;;-147.17;100.00;59696.56;4983020;28;8903;-66
2022/05/29 11:11:43;;;;;;;;;1.75;1.75;;;;;-147.17;100.00;59696.56;4982161;28;9001;-67
2022/05/29 11:14:27;;;;;;;;;2.00;1.67;;;;;-147.17;100.00;59696.56;4988636;28;8952;-66
2022/05/29 11:17:11;;;;;;;;;1.50;1.25;;;;;-147.17;100.00;59696.56;4977503;28;8892;-68
2022/05/29 11:19:55;;;;;;;;;2.00;2.00;;;;;-147.17;100.00;59696.56;4988640;28;8930;-67
2022/05/29 11:22:25;;;;;;;;;8.00;7.33;;;;;-147.17;100.00;59696.56;4990971;28;8996;-67
2022/05/29 11:25:06;;;;;;;;;3.25;3.00;;;;;-147.17;100.00;59696.56;4976811;28;9150;-66
2022/05/29 11:27:46;;;;;;;;;4.00;3.00;;;;;-147.17;100.00;59696.56;4979633;28;8812;-66
2022/05/29 11:33:06;;;;;;;;;3.00;2.00;;;;;-147.17;100.00;59696.56;5216318;22;8904;-64
2022/05/29 11:36:02;;;;;;;;;2.75;2.75;;;;;-147.17;100.00;59696.56;5029321;28;8866;-63
2022/05/29 11:39:00;;;;;;;;;7.00;5.33;;;;;-147.17;100.00;59696.56;5011908;28;8810;-63
2022/05/29 11:41:45;;;;;;;;;1.33;1.33;;;;;-147.17;100.00;59696.56;5030316;28;9113;-64
2022/05/29 11:44:19;;;;;;;;;1.67;1.67;;;;;-147.17;100.00;59696.56;5025398;28;8950;-64
2022/05/29 11:52:47;;;;;;;;;2.00;2.00;;;;;-147.17;100.00;59696.56;5028500;28;8783;-64
2022/05/29 11:55:21;;;;;;;;;2.00;2.00;;;;;-147.17;100.00;59696.56;5029861;28;9184;-64
2022/05/29 11:57:58;;;;;;;;;1.00;1.00;;;;;-147.17;100.00;59696.56;5029205;28;8904;-64
2022/05/29 12:00:50;;;;;;;;;1.75;1.75;;;;;-147.17;100.00;59696.56;5029459;28;8849;-64
2022/05/29 12:03:44;;;;;;;;;1.33;1.33;;;;;-147.17;100.00;59696.56;5015584;28;8787;-63
2022/05/29 12:06:19;;;;;;;;;1.00;1.00;;;;;-147.17;100.00;59696.56;5030248;28;9066;-63
2022/05/29 12:08:54;;;;;;;;;2.00;2.00;;;;;-147.17;100.00;59696.56;5030274;28;8884;-63
2022/05/29 12:11:22;;;;;;;;;2.33;2.33;;;;;-147.17;100.00;59696.56;4995917;28;8838;-64
2022/05/29 12:14:34;;;;;;;;;3.00;3.00;;;;;-147.17;100.00;59696.56;5030202;28;8901;-64